sensor_id;sensor_type;location;lat;lon;timestamp;pressure;altitude;pressure_sealevel;temperature;humidity
21817;BME280;13247;47.504;7.382;2024-02-16T00:02:20;97269.00;;;9.62;100.00
21817;BME280;13247;47.504;7.382;2024-02-16T00:05:05;97257.41;;;9.40;100.00
21817;BME280;13247;47.504;7.382;2024-02-16T00:07:52;97266.59;;;9.55;100.00
21817;BME280;13247;47.504;7.382;2024-02-16T00:10:36;97284.97;;;9.22;100.00
21817;BME280;13247;47.504;7.382;2024-02-16T00:13:21;97276.53;;;9.43;100.00
21817;BME280;13247;47.504;7.382;2024-02-16T00:16:06;97302.03;;;8.68;100.00
21817;BME280;13247;47.504;7.382;2024-02-16T00:18:52;97295.50;;;8.86;100.00
21817;BME280;13247;47.504;7.382;2024-02-16T00:21:37;97302.75;;;9.10;100.00
21817;BME280;13247;47.504;7.382;2024-02-16T00:24:21;97303.38;;;8.86;100.00
21817;BME280;13247;47.504;7.382;2024-02-16T00:27:06;97308.91;;;8.74;100.00
21817;BME280;13247;47.504;7.382;2024-02-16T00:29:51;97313.59;;;8.95;100.00
21817;BME280;13247;47.504;7.382;2024-02-16T00:32:36;97310.06;;;8.97;100.00
21817;BME280;13247;47.504;7.382;2024-02-16T00:35:21;97312.13;;;9.17;100.00
21817;BME280;13247;47.504;7.382;2024-02-16T00:38:06;97308.69;;;9.15;100.00
21817;BME280;13247;47.504;7.382;2024-02-16T00:40:50;97307.16;;;9.40;100.00
21817;BME280;13247;47.504;7.382;2024-02-16T00:43:35;97304.69;;;9.35;100.00
21817;BME280;13247;47.504;7.382;2024-02-16T00:46:20;97301.38;;;9.29;100.00
21817;BME280;13247;47.504;7.382;2024-02-16T00:49:07;97290.97;;;9.26;100.00
21817;BME280;13247;47.504;7.382;2024-02-16T00:51:54;97281.97;;;9.36;100.00
21817;BME280;13247;47.504;7.382;2024-02-16T00:54:39;97282.28;;;9.56;100.00
21817;BME280;13247;47.504;7.382;2024-02-16T00:57:23;97276.31;;;9.51;100.00
21817;BME280;13247;47.504;7.382;2024-02-16T01:00:08;97272.97;;;9.46;100.00
21817;BME280;13247;47.504;7.382;2024-02-16T01:02:54;97281.06;;;9.37;100.00
21817;BME280;13247;47.504;7.382;2024-02-16T01:05:39;97274.75;;;9.13;100.00
21817;BME280;13247;47.504;7.382;2024-02-16T01:08:24;97281.84;;;9.08;100.00
21817;BME280;13247;47.504;7.382;2024-02-16T01:11:11;97285.94;;;8.86;100.00
21817;BME280;13247;47.504;7.382;2024-02-16T01:13:56;97286.69;;;8.90;100.00
21817;BME280;13247;47.504;7.382;2024-02-16T01:16:41;97294.25;;;8.66;100.00
21817;BME280;13247;47.504;7.382;2024-02-16T01:19:25;97286.09;;;8.80;100.00
21817;BME280;13247;47.504;7.382;2024-02-16T01:22:10;97285.00;;;8.87;100.00
21817;BME280;13247;47.504;7.382;2024-02-16T01:24:55;97285.81;;;9.23;100.00
21817;BME280;13247;47.504;7.382;2024-02-16T01:27:39;97279.63;;;9.25;100.00
21817;BME280;13247;47.504;7.382;2024-02-16T01:30:25;97271.72;;;9.28;100.00
21817;BME280;13247;47.504;7.382;2024-02-16T01:33:10;97273.72;;;9.19;100.00
21817;BME280;13247;47.504;7.382;2024-02-16T01:35:54;97269.78;;;9.35;100.00
21817;BME280;13247;47.504;7.382;2024-02-16T01:38:39;97264.63;;;9.32;100.00
21817;BME280;13247;47.504;7.382;2024-02-16T01:41:24;97269.22;;;9.24;100.00
21817;BME280;13247;47.504;7.382;2024-02-16T01:44:09;97268.75;;;9.10;100.00
21817;BME280;13247;47.504;7.382;2024-02-16T01:46:53;97283.00;;;8.98;100.00
21817;BME280;13247;47.504;7.382;2024-02-16T01:49:38;97291.22;;;8.83;100.00
21817;BME280;13247;47.504;7.382;2024-02-16T01:52:23;97286.16;;;8.77;100.00
21817;BME280;13247;47.504;7.382;2024-02-16T01:55:08;97299.31;;;8.74;100.00
21817;BME280;13247;47.504;7.382;2024-02-16T01:57:55;97292.31;;;8.75;100.00
21817;BME280;13247;47.504;7.382;2024-02-16T02:00:42;97286.94;;;8.81;100.00
21817;BME280;13247;47.504;7.382;2024-02-16T02:03:27;97297.91;;;8.95;100.00
21817;BME280;13247;47.504;7.382;2024-02-16T02:06:12;97281.88;;;9.07;100.00
21817;BME280;13247;47.504;7.382;2024-02-16T02:08:57;97267.53;;;8.89;100.00
21817;BME280;13247;47.504;7.382;2024-02-16T02:11:42;97273.94;;;8.78;100.00
21817;BME280;13247;47.504;7.382;2024-02-16T02:14:27;97276.16;;;8.93;100.00
21817;BME280;13247;47.504;7.382;2024-02-16T02:17:12;97261.00;;;9.05;100.00
21817;BME280;13247;47.504;7.382;2024-02-16T02:19:57;97272.03;;;8.84;100.00
21817;BME280;13247;47.504;7.382;2024-02-16T02:22:42;97280.47;;;8.94;100.00
21817;BME280;13247;47.504;7.382;2024-02-16T02:25:27;97266.81;;;8.84;100.00
21817;BME280;13247;47.504;7.382;2024-02-16T02:28:12;97275.09;;;8.66;100.00
21817;BME280;13247;47.504;7.382;2024-02-16T02:30:58;97273.28;;;8.69;100.00
21817;BME280;13247;47.504;7.382;2024-02-16T02:33:42;97274.25;;;8.65;100.00
21817;BME280;13247;47.504;7.382;2024-02-16T02:36:27;97272.19;;;8.78;100.00
21817;BME280;13247;47.504;7.382;2024-02-16T02:39:12;97268.44;;;8.88;100.00
21817;BME280;13247;47.504;7.382;2024-02-16T02:41:58;97268.38;;;8.91;100.00
21817;BME280;13247;47.504;7.382;2024-02-16T02:44:42;97263.75;;;9.01;100.00
21817;BME280;13247;47.504;7.382;2024-02-16T02:47:33;97266.31;;;9.02;100.00
21817;BME280;13247;47.504;7.382;2024-02-16T02:50:18;97253.28;;;9.01;100.00
21817;BME280;13247;47.504;7.382;2024-02-16T02:53:03;97263.56;;;9.07;100.00
21817;BME280;13247;47.504;7.382;2024-02-16T02:55:48;97253.97;;;9.07;100.00
21817;BME280;13247;47.504;7.382;2024-02-16T02:58:32;97260.53;;;8.90;100.00
21817;BME280;13247;47.504;7.382;2024-02-16T03:01:17;97261.94;;;9.03;100.00
21817;BME280;13247;47.504;7.382;2024-02-16T03:04:04;97256.28;;;8.86;100.00
21817;BME280;13247;47.504;7.382;2024-02-16T03:06:52;97261.47;;;8.53;100.00
21817;BME280;13247;47.504;7.382;2024-02-16T03:09:37;97265.97;;;8.48;100.00
21817;BME280;13247;47.504;7.382;2024-02-16T03:12:22;97269.28;;;8.55;100.00
21817;BME280;13247;47.504;7.382;2024-02-16T03:15:07;97265.72;;;8.93;100.00
21817;BME280;13247;47.504;7.382;2024-02-16T03:17:53;97254.06;;;8.70;100.00
21817;BME280;13247;47.504;7.382;2024-02-16T03:20:38;97253.88;;;8.44;100.00
21817;BME280;13247;47.504;7.382;2024-02-16T03:23:23;97257.47;;;8.40;100.00
21817;BME280;13247;47.504;7.382;2024-02-16T03:26:14;97265.88;;;8.51;100.00
21817;BME280;13247;47.504;7.382;2024-02-16T03:28:59;97264.91;;;8.55;100.00
21817;BME280;13247;47.504;7.382;2024-02-16T03:31:44;97267.25;;;8.66;100.00
21817;BME280;13247;47.504;7.382;2024-02-16T03:34:29;97261.47;;;8.53;100.00
21817;BME280;13247;47.504;7.382;2024-02-16T03:37:14;97262.00;;;8.67;100.00
21817;BME280;13247;47.504;7.382;2024-02-16T03:40:00;97260.44;;;8.60;100.00
21817;BME280;13247;47.504;7.382;2024-02-16T03:42:45;97269.22;;;8.21;100.00
21817;BME280;13247;47.504;7.382;2024-02-16T03:45:30;97274.06;;;8.38;100.00
21817;BME280;13247;47.504;7.382;2024-02-16T03:48:14;97274.06;;;8.36;100.00
21817;BME280;13247;47.504;7.382;2024-02-16T03:50:59;97279.09;;;8.45;100.00
21817;BME280;13247;47.504;7.382;2024-02-16T03:53:44;97281.63;;;8.10;100.00
21817;BME280;13247;47.504;7.382;2024-02-16T03:56:29;97284.16;;;8.15;100.00
21817;BME280;13247;47.504;7.382;2024-02-16T03:59:14;97286.66;;;7.79;100.00
21817;BME280;13247;47.504;7.382;2024-02-16T04:01:59;97299.38;;;7.55;100.00
21817;BME280;13247;47.504;7.382;2024-02-16T04:04:44;97302.22;;;7.85;100.00
21817;BME280;13247;47.504;7.382;2024-02-16T04:07:28;97298.28;;;8.05;100.00
21817;BME280;13247;47.504;7.382;2024-02-16T04:10:13;97296.28;;;8.17;100.00
21817;BME280;13247;47.504;7.382;2024-02-16T04:12:58;97290.09;;;8.20;100.00
21817;BME280;13247;47.504;7.382;2024-02-16T04:15:42;97294.03;;;8.01;100.00
21817;BME280;13247;47.504;7.382;2024-02-16T04:18:27;97298.91;;;8.16;100.00
21817;BME280;13247;47.504;7.382;2024-02-16T04:21:12;97293.19;;;8.40;100.00
21817;BME280;13247;47.504;7.382;2024-02-16T04:23:56;97281.19;;;8.31;100.00
21817;BME280;13247;47.504;7.382;2024-02-16T04:26:41;97286.09;;;8.05;100.00
21817;BME280;13247;47.504;7.382;2024-02-16T04:29:26;97295.66;;;8.05;100.00
21817;BME280;13247;47.504;7.382;2024-02-16T04:32:10;97291.75;;;8.24;100.00
21817;BME280;13247;47.504;7.382;2024-02-16T04:34:55;97301.53;;;8.16;100.00
21817;BME280;13247;47.504;7.382;2024-02-16T04:37:43;97305.19;;;8.07;100.00
21817;BME280;13247;47.504;7.382;2024-02-16T04:40:27;97301.72;;;8.08;100.00
21817;BME280;13247;47.504;7.382;2024-02-16T04:43:12;97297.22;;;8.13;100.00
21817;BME280;13247;47.504;7.382;2024-02-16T04:45:57;97302.59;;;8.07;100.00
21817;BME280;13247;47.504;7.382;2024-02-16T04:48:42;97303.59;;;8.02;100.00
21817;BME280;13247;47.504;7.382;2024-02-16T04:51:27;97312.44;;;7.94;100.00
21817;BME280;13247;47.504;7.382;2024-02-16T04:54:12;97308.22;;;7.89;100.00
21817;BME280;13247;47.504;7.382;2024-02-16T04:56:56;97321.41;;;7.83;100.00
21817;BME280;13247;47.504;7.382;2024-02-16T04:59:41;97321.09;;;7.97;100.00
21817;BME280;13247;47.504;7.382;2024-02-16T05:02:26;97324.75;;;7.88;100.00
21817;BME280;13247;47.504;7.382;2024-02-16T05:05:10;97321.81;;;8.03;100.00
21817;BME280;13247;47.504;7.382;2024-02-16T05:07:55;97328.28;;;7.87;100.00
21817;BME280;13247;47.504;7.382;2024-02-16T05:10:40;97329.84;;;7.53;100.00
21817;BME280;13247;47.504;7.382;2024-02-16T05:13:25;97344.28;;;7.25;100.00
21817;BME280;13247;47.504;7.382;2024-02-16T05:16:10;97351.81;;;7.41;100.00
21817;BME280;13247;47.504;7.382;2024-02-16T05:18:55;97358.66;;;7.47;100.00
21817;BME280;13247;47.504;7.382;2024-02-16T05:21:40;97358.63;;;7.48;100.00
21817;BME280;13247;47.504;7.382;2024-02-16T05:24:25;97351.41;;;7.61;100.00
21817;BME280;13247;47.504;7.382;2024-02-16T05:27:10;97346.69;;;7.79;100.00
21817;BME280;13247;47.504;7.382;2024-02-16T05:29:55;97347.72;;;7.71;100.00
21817;BME280;13247;47.504;7.382;2024-02-16T05:32:40;97339.84;;;7.74;100.00
21817;BME280;13247;47.504;7.382;2024-02-16T05:35:24;97360.13;;;7.61;100.00
21817;BME280;13247;47.504;7.382;2024-02-16T05:38:13;97350.56;;;7.60;100.00
21817;BME280;13247;47.504;7.382;2024-02-16T05:41:16;97361.78;;;7.65;100.00
21817;BME280;13247;47.504;7.382;2024-02-16T05:44:02;97357.72;;;7.51;100.00
21817;BME280;13247;47.504;7.382;2024-02-16T05:46:47;97362.03;;;7.53;100.00
21817;BME280;13247;47.504;7.382;2024-02-16T05:49:31;97362.19;;;7.44;100.00
21817;BME280;13247;47.504;7.382;2024-02-16T05:52:16;97361.06;;;7.57;100.00
21817;BME280;13247;47.504;7.382;2024-02-16T05:55:08;97361.47;;;7.80;100.00
21817;BME280;13247;47.504;7.382;2024-02-16T05:57:53;97356.81;;;7.96;100.00
21817;BME280;13247;47.504;7.382;2024-02-16T06:00:37;97355.06;;;7.95;100.00
21817;BME280;13247;47.504;7.382;2024-02-16T06:03:22;97349.59;;;8.07;100.00
21817;BME280;13247;47.504;7.382;2024-02-16T06:06:07;97348.38;;;8.23;100.00
21817;BME280;13247;47.504;7.382;2024-02-16T06:08:52;97342.34;;;8.21;100.00
21817;BME280;13247;47.504;7.382;2024-02-16T06:11:37;97332.59;;;8.29;100.00
21817;BME280;13247;47.504;7.382;2024-02-16T06:14:23;97338.50;;;8.37;100.00
21817;BME280;13247;47.504;7.382;2024-02-16T06:17:07;97344.72;;;8.33;100.00
21817;BME280;13247;47.504;7.382;2024-02-16T06:19:53;97346.97;;;8.48;100.00
21817;BME280;13247;47.504;7.382;2024-02-16T06:22:38;97348.53;;;8.57;100.00
21817;BME280;13247;47.504;7.382;2024-02-16T06:25:23;97351.88;;;8.62;100.00
21817;BME280;13247;47.504;7.382;2024-02-16T06:28:07;97354.03;;;8.43;100.00
21817;BME280;13247;47.504;7.382;2024-02-16T06:30:52;97341.31;;;8.30;100.00
21817;BME280;13247;47.504;7.382;2024-02-16T06:33:37;97356.75;;;8.39;100.00
21817;BME280;13247;47.504;7.382;2024-02-16T06:36:22;97354.28;;;8.71;100.00
21817;BME280;13247;47.504;7.382;2024-02-16T06:39:06;97357.19;;;8.57;100.00
21817;BME280;13247;47.504;7.382;2024-02-16T06:41:51;97357.66;;;8.76;100.00
21817;BME280;13247;47.504;7.382;2024-02-16T06:44:36;97361.69;;;8.52;100.00
21817;BME280;13247;47.504;7.382;2024-02-16T06:47:20;97364.63;;;8.76;100.00
21817;BME280;13247;47.504;7.382;2024-02-16T06:50:07;97362.38;;;8.60;100.00
21817;BME280;13247;47.504;7.382;2024-02-16T06:52:52;97371.38;;;8.84;100.00
21817;BME280;13247;47.504;7.382;2024-02-16T06:55:39;97377.22;;;8.58;100.00
21817;BME280;13247;47.504;7.382;2024-02-16T06:58:24;97381.75;;;8.87;100.00
21817;BME280;13247;47.504;7.382;2024-02-16T07:01:09;97389.75;;;8.83;100.00
21817;BME280;13247;47.504;7.382;2024-02-16T07:03:53;97395.53;;;8.95;100.00
21817;BME280;13247;47.504;7.382;2024-02-16T07:06:38;97394.16;;;8.81;100.00
21817;BME280;13247;47.504;7.382;2024-02-16T07:09:23;97406.91;;;8.93;100.00
21817;BME280;13247;47.504;7.382;2024-02-16T07:12:07;97411.38;;;8.51;100.00
21817;BME280;13247;47.504;7.382;2024-02-16T07:14:52;97414.34;;;8.34;100.00
21817;BME280;13247;47.504;7.382;2024-02-16T07:17:38;97423.00;;;8.76;100.00
21817;BME280;13247;47.504;7.382;2024-02-16T07:20:22;97419.72;;;8.66;100.00
21817;BME280;13247;47.504;7.382;2024-02-16T07:23:07;97429.84;;;8.82;100.00
21817;BME280;13247;47.504;7.382;2024-02-16T07:25:54;97433.06;;;8.54;100.00
21817;BME280;13247;47.504;7.382;2024-02-16T07:28:40;97437.78;;;8.77;100.00
21817;BME280;13247;47.504;7.382;2024-02-16T07:31:25;97442.84;;;8.46;100.00
21817;BME280;13247;47.504;7.382;2024-02-16T07:34:10;97450.69;;;8.45;100.00
21817;BME280;13247;47.504;7.382;2024-02-16T07:36:55;97440.97;;;8.51;100.00
21817;BME280;13247;47.504;7.382;2024-02-16T07:39:41;97455.44;;;8.66;100.00
21817;BME280;13247;47.504;7.382;2024-02-16T07:42:26;97451.56;;;8.84;100.00
21817;BME280;13247;47.504;7.382;2024-02-16T07:45:10;97455.56;;;9.00;100.00
21817;BME280;13247;47.504;7.382;2024-02-16T07:47:56;97456.34;;;9.03;100.00
21817;BME280;13247;47.504;7.382;2024-02-16T07:50:40;97453.63;;;9.08;100.00
21817;BME280;13247;47.504;7.382;2024-02-16T07:53:25;97458.63;;;9.17;100.00
21817;BME280;13247;47.504;7.382;2024-02-16T07:56:10;97462.34;;;9.43;100.00
21817;BME280;13247;47.504;7.382;2024-02-16T07:58:55;97456.56;;;9.29;100.00
21817;BME280;13247;47.504;7.382;2024-02-16T08:01:40;97472.63;;;9.51;100.00
21817;BME280;13247;47.504;7.382;2024-02-16T08:04:25;97466.94;;;9.35;100.00
21817;BME280;13247;47.504;7.382;2024-02-16T08:07:09;97467.50;;;9.80;100.00
21817;BME280;13247;47.504;7.382;2024-02-16T08:09:54;97474.63;;;9.40;100.00
21817;BME280;13247;47.504;7.382;2024-02-16T08:12:39;97476.25;;;9.79;100.00
21817;BME280;13247;47.504;7.382;2024-02-16T08:15:25;97477.97;;;9.80;100.00
21817;BME280;13247;47.504;7.382;2024-02-16T08:18:10;97475.06;;;9.92;100.00
21817;BME280;13247;47.504;7.382;2024-02-16T08:20:56;97481.00;;;9.97;100.00
21817;BME280;13247;47.504;7.382;2024-02-16T08:23:40;97493.53;;;10.20;100.00
21817;BME280;13247;47.504;7.382;2024-02-16T08:26:25;97490.63;;;10.31;100.00
21817;BME280;13247;47.504;7.382;2024-02-16T08:29:10;97487.28;;;10.55;100.00
21817;BME280;13247;47.504;7.382;2024-02-16T08:31:55;97487.66;;;10.72;100.00
21817;BME280;13247;47.504;7.382;2024-02-16T08:34:39;97488.66;;;10.39;100.00
21817;BME280;13247;47.504;7.382;2024-02-16T08:37:24;97497.16;;;10.47;100.00
21817;BME280;13247;47.504;7.382;2024-02-16T08:40:10;97487.03;;;10.93;100.00
21817;BME280;13247;47.504;7.382;2024-02-16T08:42:58;97490.66;;;11.17;100.00
21817;BME280;13247;47.504;7.382;2024-02-16T08:45:45;97484.28;;;11.25;100.00
21817;BME280;13247;47.504;7.382;2024-02-16T08:48:30;97484.28;;;11.25;100.00
21817;BME280;13247;47.504;7.382;2024-02-16T08:51:15;97492.84;;;11.02;100.00
21817;BME280;13247;47.504;7.382;2024-02-16T08:54:00;97490.81;;;11.40;100.00
21817;BME280;13247;47.504;7.382;2024-02-16T08:56:45;97492.97;;;11.53;100.00
21817;BME280;13247;47.504;7.382;2024-02-16T08:59:29;97488.72;;;11.49;100.00
21817;BME280;13247;47.504;7.382;2024-02-16T09:02:14;97489.25;;;11.60;100.00
21817;BME280;13247;47.504;7.382;2024-02-16T09:04:59;97485.09;;;11.53;100.00
21817;BME280;13247;47.504;7.382;2024-02-16T09:07:44;97488.91;;;11.71;100.00
21817;BME280;13247;47.504;7.382;2024-02-16T09:10:29;97493.53;;;11.89;100.00
21817;BME280;13247;47.504;7.382;2024-02-16T09:13:13;97492.19;;;12.04;100.00
21817;BME280;13247;47.504;7.382;2024-02-16T09:15:59;97495.50;;;12.09;100.00
21817;BME280;13247;47.504;7.382;2024-02-16T09:18:43;97498.50;;;12.23;100.00
21817;BME280;13247;47.504;7.382;2024-02-16T09:21:28;97497.44;;;12.28;100.00
21817;BME280;13247;47.504;7.382;2024-02-16T09:24:14;97498.31;;;12.29;100.00
21817;BME280;13247;47.504;7.382;2024-02-16T09:27:02;97509.56;;;12.32;100.00
21817;BME280;13247;47.504;7.382;2024-02-16T09:29:49;97512.84;;;12.39;100.00
21817;BME280;13247;47.504;7.382;2024-02-16T09:32:34;97518.81;;;12.67;100.00
21817;BME280;13247;47.504;7.382;2024-02-16T09:35:18;97504.50;;;12.74;100.00
21817;BME280;13247;47.504;7.382;2024-02-16T09:38:03;97506.91;;;12.80;100.00
21817;BME280;13247;47.504;7.382;2024-02-16T09:40:48;97502.34;;;12.85;100.00
21817;BME280;13247;47.504;7.382;2024-02-16T09:43:35;97513.44;;;12.93;100.00
21817;BME280;13247;47.504;7.382;2024-02-16T09:46:20;97508.31;;;13.13;100.00
21817;BME280;13247;47.504;7.382;2024-02-16T09:49:05;97506.47;;;13.37;100.00
21817;BME280;13247;47.504;7.382;2024-02-16T09:51:50;97512.00;;;13.31;100.00
21817;BME280;13247;47.504;7.382;2024-02-16T09:54:34;97522.50;;;13.32;100.00
21817;BME280;13247;47.504;7.382;2024-02-16T09:57:19;97522.59;;;13.29;100.00
21817;BME280;13247;47.504;7.382;2024-02-16T10:00:04;97525.13;;;13.32;100.00
21817;BME280;13247;47.504;7.382;2024-02-16T10:02:49;97535.28;;;13.42;100.00
21817;BME280;13247;47.504;7.382;2024-02-16T10:05:34;97542.47;;;13.60;100.00
21817;BME280;13247;47.504;7.382;2024-02-16T10:08:19;97542.72;;;13.54;100.00
21817;BME280;13247;47.504;7.382;2024-02-16T10:11:04;97541.84;;;13.53;100.00
21817;BME280;13247;47.504;7.382;2024-02-16T10:14:02;97540.97;;;13.53;100.00
21817;BME280;13247;47.504;7.382;2024-02-16T10:16:47;97541.84;;;13.75;100.00
21817;BME280;13247;47.504;7.382;2024-02-16T10:19:32;97557.53;;;13.78;100.00
21817;BME280;13247;47.504;7.382;2024-02-16T10:22:24;97559.38;;;13.97;100.00
21817;BME280;13247;47.504;7.382;2024-02-16T10:25:08;97563.66;;;14.00;100.00
21817;BME280;13247;47.504;7.382;2024-02-16T10:27:57;97567.28;;;14.17;100.00
21817;BME280;13247;47.504;7.382;2024-02-16T10:30:43;97569.47;;;14.28;100.00
21817;BME280;13247;47.504;7.382;2024-02-16T10:33:28;97582.41;;;14.14;100.00
21817;BME280;13247;47.504;7.382;2024-02-16T10:36:14;97586.94;;;14.32;100.00
21817;BME280;13247;47.504;7.382;2024-02-16T10:38:59;97589.00;;;14.46;100.00
21817;BME280;13247;47.504;7.382;2024-02-16T10:41:44;97594.16;;;14.27;100.00
21817;BME280;13247;47.504;7.382;2024-02-16T10:44:28;97595.41;;;14.18;100.00
21817;BME280;13247;47.504;7.382;2024-02-16T10:47:13;97596.78;;;13.85;100.00
21817;BME280;13247;47.504;7.382;2024-02-16T10:49:57;97608.94;;;14.09;100.00
21817;BME280;13247;47.504;7.382;2024-02-16T10:52:42;97606.56;;;14.25;100.00
21817;BME280;13247;47.504;7.382;2024-02-16T10:55:30;97603.38;;;14.17;100.00
21817;BME280;13247;47.504;7.382;2024-02-16T10:58:16;97613.94;;;14.17;100.00
21817;BME280;13247;47.504;7.382;2024-02-16T11:01:07;97615.53;;;14.21;100.00
21817;BME280;13247;47.504;7.382;2024-02-16T11:04:00;97610.03;;;14.26;100.00
21817;BME280;13247;47.504;7.382;2024-02-16T11:06:48;97607.78;;;14.16;100.00
21817;BME280;13247;47.504;7.382;2024-02-16T11:09:38;97605.09;;;14.18;100.00
21817;BME280;13247;47.504;7.382;2024-02-16T11:12:23;97606.75;;;14.21;100.00
21817;BME280;13247;47.504;7.382;2024-02-16T11:15:08;97616.25;;;14.25;100.00
21817;BME280;13247;47.504;7.382;2024-02-16T11:17:55;97616.13;;;14.06;100.00
21817;BME280;13247;47.504;7.382;2024-02-16T11:20:41;97617.44;;;13.96;100.00
21817;BME280;13247;47.504;7.382;2024-02-16T11:23:28;97620.88;;;13.98;100.00
21817;BME280;13247;47.504;7.382;2024-02-16T11:26:13;97623.38;;;14.01;100.00
21817;BME280;13247;47.504;7.382;2024-02-16T11:28:59;97623.72;;;13.92;100.00
21817;BME280;13247;47.504;7.382;2024-02-16T11:31:44;97621.50;;;13.81;100.00
21817;BME280;13247;47.504;7.382;2024-02-16T11:34:29;97624.78;;;13.88;100.00
21817;BME280;13247;47.504;7.382;2024-02-16T11:37:14;97624.41;;;13.97;100.00
21817;BME280;13247;47.504;7.382;2024-02-16T11:40:00;97627.16;;;13.72;100.00
21817;BME280;13247;47.504;7.382;2024-02-16T11:42:44;97625.09;;;13.80;100.00
21817;BME280;13247;47.504;7.382;2024-02-16T11:45:33;97632.06;;;14.03;100.00
21817;BME280;13247;47.504;7.382;2024-02-16T11:51:07;97628.47;;;14.05;100.00
21817;BME280;13247;47.504;7.382;2024-02-16T11:53:55;97627.91;;;14.19;100.00
21817;BME280;13247;47.504;7.382;2024-02-16T11:56:40;97621.69;;;14.20;100.00
21817;BME280;13247;47.504;7.382;2024-02-16T11:59:27;97632.31;;;14.18;100.00
21817;BME280;13247;47.504;7.382;2024-02-16T12:02:16;97623.28;;;14.24;100.00
21817;BME280;13247;47.504;7.382;2024-02-16T12:05:03;97626.91;;;14.22;100.00
21817;BME280;13247;47.504;7.382;2024-02-16T12:07:49;97620.78;;;14.21;100.00
21817;BME280;13247;47.504;7.382;2024-02-16T12:10:33;97625.75;;;14.07;100.00
21817;BME280;13247;47.504;7.382;2024-02-16T12:13:19;97630.72;;;14.14;100.00
21817;BME280;13247;47.504;7.382;2024-02-16T12:16:04;97633.31;;;14.16;100.00
21817;BME280;13247;47.504;7.382;2024-02-16T12:18:51;97639.69;;;14.10;100.00
21817;BME280;13247;47.504;7.382;2024-02-16T12:21:35;97635.50;;;14.05;100.00
21817;BME280;13247;47.504;7.382;2024-02-16T12:24:21;97644.22;;;14.07;100.00
21817;BME280;13247;47.504;7.382;2024-02-16T12:27:07;97625.22;;;13.99;100.00
21817;BME280;13247;47.504;7.382;2024-02-16T12:29:51;97620.91;;;14.18;100.00
21817;BME280;13247;47.504;7.382;2024-02-16T12:32:37;97630.19;;;14.06;100.00
21817;BME280;13247;47.504;7.382;2024-02-16T12:35:22;97621.16;;;14.12;100.00
21817;BME280;13247;47.504;7.382;2024-02-16T12:38:07;97618.09;;;14.23;100.00
21817;BME280;13247;47.504;7.382;2024-02-16T12:40:51;97629.31;;;14.06;100.00
21817;BME280;13247;47.504;7.382;2024-02-16T12:43:36;97632.50;;;14.14;100.00
21817;BME280;13247;47.504;7.382;2024-02-16T12:46:21;97635.31;;;14.09;100.00
21817;BME280;13247;47.504;7.382;2024-02-16T12:49:06;97637.41;;;14.23;100.00
21817;BME280;13247;47.504;7.382;2024-02-16T12:51:51;97626.00;;;14.01;100.00
21817;BME280;13247;47.504;7.382;2024-02-16T12:54:36;97630.66;;;14.16;100.00
21817;BME280;13247;47.504;7.382;2024-02-16T12:57:21;97627.59;;;14.27;100.00
21817;BME280;13247;47.504;7.382;2024-02-16T13:00:06;97629.03;;;14.35;100.00
21817;BME280;13247;47.504;7.382;2024-02-16T13:02:51;97630.06;;;14.31;100.00
21817;BME280;13247;47.504;7.382;2024-02-16T13:05:35;97618.22;;;14.41;100.00
21817;BME280;13247;47.504;7.382;2024-02-16T13:08:20;97617.22;;;14.22;100.00
21817;BME280;13247;47.504;7.382;2024-02-16T13:11:05;97616.50;;;14.40;100.00
21817;BME280;13247;47.504;7.382;2024-02-16T13:13:50;97616.38;;;14.43;100.00
21817;BME280;13247;47.504;7.382;2024-02-16T13:16:35;97616.25;;;14.46;100.00
21817;BME280;13247;47.504;7.382;2024-02-16T13:19:20;97621.38;;;14.49;100.00
21817;BME280;13247;47.504;7.382;2024-02-16T13:22:05;97615.59;;;14.61;100.00
21817;BME280;13247;47.504;7.382;2024-02-16T13:24:50;97616.66;;;14.77;100.00
21817;BME280;13247;47.504;7.382;2024-02-16T13:27:35;97617.22;;;14.64;100.00
21817;BME280;13247;47.504;7.382;2024-02-16T13:30:20;97615.31;;;14.47;100.00
21817;BME280;13247;47.504;7.382;2024-02-16T13:33:05;97630.59;;;14.39;100.00
21817;BME280;13247;47.504;7.382;2024-02-16T13:35:50;97625.44;;;14.36;100.00
21817;BME280;13247;47.504;7.382;2024-02-16T13:38:34;97629.63;;;14.20;100.00
21817;BME280;13247;47.504;7.382;2024-02-16T13:41:19;97627.34;;;14.33;100.00
21817;BME280;13247;47.504;7.382;2024-02-16T13:44:04;97628.88;;;14.38;100.00
21817;BME280;13247;47.504;7.382;2024-02-16T13:46:49;97632.72;;;14.31;100.00
21817;BME280;13247;47.504;7.382;2024-02-16T13:49:33;97633.63;;;14.30;100.00
21817;BME280;13247;47.504;7.382;2024-02-16T13:52:18;97635.97;;;14.38;100.00
21817;BME280;13247;47.504;7.382;2024-02-16T13:55:03;97624.16;;;14.25;100.00
21817;BME280;13247;47.504;7.382;2024-02-16T13:57:48;97618.09;;;14.44;100.00
21817;BME280;13247;47.504;7.382;2024-02-16T14:00:32;97624.16;;;14.46;100.00
21817;BME280;13247;47.504;7.382;2024-02-16T14:03:17;97622.06;;;14.54;100.00
21817;BME280;13247;47.504;7.382;2024-02-16T14:06:02;97626.28;;;14.58;100.00
21817;BME280;13247;47.504;7.382;2024-02-16T14:08:47;97623.56;;;14.60;100.00
21817;BME280;13247;47.504;7.382;2024-02-16T14:11:33;97615.91;;;14.54;100.00
21817;BME280;13247;47.504;7.382;2024-02-16T14:14:18;97621.00;;;14.58;100.00
21817;BME280;13247;47.504;7.382;2024-02-16T14:17:02;97632.72;;;14.31;100.00
21817;BME280;13247;47.504;7.382;2024-02-16T14:19:47;97628.56;;;14.46;100.00
21817;BME280;13247;47.504;7.382;2024-02-16T14:22:32;97624.88;;;14.30;100.00
21817;BME280;13247;47.504;7.382;2024-02-16T14:25:17;97630.41;;;14.22;100.00
21817;BME280;13247;47.504;7.382;2024-02-16T14:28:03;97622.81;;;14.14;100.00
21817;BME280;13247;47.504;7.382;2024-02-16T14:30:48;97624.69;;;14.11;100.00
21817;BME280;13247;47.504;7.382;2024-02-16T14:33:33;97621.59;;;14.23;100.00